OwLS Head — WDJ5742 — position and weather

sailwx.info

Track history (hours):
 
Tides and Currents Weather Stations Pressure Air Temp Water Temp Dewpoint Dewpoint Depression Visibility Wind Speed Wind Dir Waves Ship Positions

OwLS Head

Owner: HNY Ferry Fleet LLC, New York, NY. More information available from US FCC via Universal Licensing System and Coast Guard Vessel Documentation Center.

Last reported at 2017-Oct-18 12:31 UTC. Time now 2017-Oct-18 12:48 UTC.
Position N 40°45' W 073°58'.

Length 26 m; draft 2 m.

Type: Passenger vessel. MMSI: 367790830.

Date/timePositionNaut miles runAvg speedWind from/ knotsBaromVisibWave heightAir tempDewpointWater temp
2017-Oct-18 12:31N 40°45' W 073°58'3 6.1
2017-Oct-18 12:00N 40°42' W 074°00'0 0.1
2017-Oct-18 11:30N 40°42' W 074°00'3 5.8
2017-Oct-18 11:00N 40°45' W 073°58'2 4.3
2017-Oct-18 10:31N 40°43' W 073°58'1 1.4
2017-Oct-18 10:00N 40°42' W 073°59'1 1.5
2017-Oct-18 09:30N 40°42' W 073°58'0 0.0
2017-Oct-18 02:02N 40°42' W 073°58'0 0.2
2017-Oct-18 02:00N 40°42' W 073°58'1 2.5
2017-Oct-18 01:30N 40°43' W 073°58'1 1.2
2017-Oct-18 01:00N 40°44' W 073°58'3 5.1
2017-Oct-18 00:30N 40°42' W 074°00'0 0.0
2017-Oct-18 00:00N 40°42' W 074°00'2 4.0
2017-Oct-17 23:30N 40°43' W 073°58'1 1.3
2017-Oct-17 23:01N 40°44' W 073°58'2 5.0
2017-Oct-17 22:30N 40°42' W 074°00'1 1.5
2017-Oct-17 22:00N 40°42' W 073°59'2 4.9
2017-Oct-17 21:30N 40°45' W 073°58'3 5.5
2017-Oct-17 21:01N 40°42' W 073°60'1 1.5
2017-Oct-17 20:31N 40°42' W 074°00'2 3.6
2017-Oct-17 20:01N 40°43' W 073°58'2 4.1
2017-Oct-17 19:30N 40°45' W 073°58'3 6.0
2017-Oct-17 19:00N 40°42' W 074°00'2 3.1
2017-Oct-17 18:30N 40°42' W 073°58'1 2.2
2017-Oct-17 18:00N 40°43' W 073°58'1 1.7
2017-Oct-17 17:30N 40°44' W 073°58'3 5.1
2017-Oct-17 17:00N 40°42' W 074°00'0 0.5
2017-Oct-17 16:31N 40°42' W 074°00'2 4.5
2017-Oct-17 16:00N 40°43' W 073°58'1 1.5
2017-Oct-17 15:30N 40°44' W 073°58'3 5.1
2017-Oct-17 15:00N 40°42' W 074°00'0 0.1
2017-Oct-17 14:30N 40°42' W 074°00'0 0.9
2017-Oct-17 14:00N 40°42' W 073°60'3 5.3
2017-Oct-17 13:30N 40°45' W 073°58'2 4.7
2017-Oct-17 13:00N 40°42' W 073°59'1 2.3
2017-Oct-17 12:30N 40°42' W 074°00'2 4.8
2017-Oct-17 12:01N 40°44' W 073°58'0 0.9
2017-Oct-17 11:31N 40°43' W 073°58'2 3.4
2017-Oct-17 11:00N 40°42' W 073°60'1 2.5
2017-Oct-17 10:30N 40°42' W 073°58'0 0.0
2017-Oct-17 02:42N 40°42' W 073°58'1 3.3
2017-Oct-17 02:30N 40°42' W 073°59'2 3.4
2017-Oct-17 02:00N 40°44' W 073°58'1 2.0
2017-Oct-17 01:30N 40°43' W 073°58'2 3.7
2017-Oct-17 01:01N 40°42' W 074°00'0 0.0
2017-Oct-17 00:31N 40°42' W 074°00'3 5.1
2017-Oct-17 00:00N 40°44' W 073°58'1 2.1
2017-Oct-16 23:31N 40°43' W 073°58'2 3.6
2017-Oct-16 23:00N 40°42' W 074°00'0 0.1
2017-Oct-16 22:30N 40°42' W 074°00'3 5.8
2017-Oct-16 22:00N 40°44' W 073°58'2 4.0
2017-Oct-16 21:30N 40°43' W 073°58'2 3.2
2017-Oct-16 21:00N 40°42' W 074°00'2 4.8
2017-Oct-16 20:30N 40°44' W 073°58'0 0.8
2017-Oct-16 20:00N 40°43' W 073°58'2 3.4
2017-Oct-16 19:31N 40°42' W 073°60'2 4.4
2017-Oct-16 19:01N 40°44' W 073°58'0 0.4
2017-Oct-16 18:30N 40°44' W 073°58'2 4.9
2017-Oct-16 18:00N 40°42' W 073°60'1 2.1
2017-Oct-16 17:30N 40°41' W 074°01'0 0.8
2017-Oct-16 17:00N 40°42' W 074°00'1 1.4
2017-Oct-16 16:30N 40°41' W 074°01'3 5.7
2017-Oct-16 16:00N 40°38' W 074°02'0 0.3
2017-Oct-16 15:30N 40°38' W 074°02'3 6.5
2017-Oct-16 15:01N 40°41' W 074°01'3 3.0
2017-Oct-16 14:00N 40°44' W 073°58'1 2.5
2017-Oct-16 13:30N 40°43' W 073°58'2 3.3
2017-Oct-16 13:00N 40°42' W 074°00'2 4.3
2017-Oct-16 12:31N 40°43' W 073°58'1 1.2
2017-Oct-16 12:00N 40°44' W 073°58'3 5.1
2017-Oct-16 11:30N 40°42' W 074°00'0 0.9
2017-Oct-16 11:00N 40°42' W 073°60'3 5.5
2017-Oct-16 10:31N 40°45' W 073°58'2 4.1
2017-Oct-16 10:00N 40°43' W 073°58'0 0.1
2017-Oct-16 03:08N 40°42' W 073°58'0 0.0
2017-Oct-16 03:00N 40°42' W 073°58'2 3.4
2017-Oct-16 02:30N 40°41' W 074°00'3 6.6
2017-Oct-16 02:01N 40°38' W 074°02'4 7.1
2017-Oct-16 01:31N 40°42' W 074°00'0 0.2
2017-Oct-16 01:01N 40°42' W 074°00'4 7.0
2017-Oct-16 00:31N 40°38' W 074°02'4 7.5
2017-Oct-16 00:00N 40°42' W 074°00'1 1.3
2017-Oct-15 23:31N 40°41' W 074°01'3 5.2
2017-Oct-15 23:00N 40°39' W 074°02'3 5.7
2017-Oct-15 22:31N 40°42' W 074°01'1 1.8
2017-Oct-15 22:00N 40°42' W 073°60'3 5.8
2017-Oct-15 21:31N 40°40' W 074°01'2 3.0
2017-Oct-15 21:00N 40°41' W 074°01'1 2.5
2017-Oct-15 20:30N 40°42' W 074°00'1 2.6
2017-Oct-15 20:00N 40°41' W 074°01'2 4.6
2017-Oct-15 19:30N 40°39' W 074°02'3 6.0
2017-Oct-15 19:01N 40°42' W 074°00'1 1.5
2017-Oct-15 18:31N 40°42' W 073°60'4 7.0
2017-Oct-15 18:01N 40°39' W 074°02'2 4.2
2017-Oct-15 17:31N 40°41' W 074°01'1 2.5
2017-Oct-15 17:00N 40°42' W 074°00'1 2.8
2017-Oct-15 16:31N 40°41' W 074°01'2 4.4
2017-Oct-15 16:00N 40°39' W 074°02'3 5.9
2017-Oct-15 15:30N 40°42' W 074°00'0 1.0
2017-Oct-15 15:00N 40°42' W 074°00'1 1.2
2017-Oct-15 14:00N 40°41' W 074°01'1 2.7
2017-Oct-15 13:31N 40°42' W 074°00'1 2.6
2017-Oct-15 13:01N 40°41' W 074°01'2 4.2
2017-Oct-15 12:30N 40°39' W 074°02'3 6.8
2017-Oct-15 12:00N 40°42' W 074°00'2 3.6
2017-Oct-15 11:31N 40°41' W 074°01'2 4.4
2017-Oct-15 11:01N 40°38' W 074°02'5 9.3
2017-Oct-15 10:30N 40°42' W 073°58'0 0.0
2017-Oct-15 02:19N 40°42' W 073°58'0 1.2
2017-Oct-15 02:00N 40°42' W 073°59'3 5.2
2017-Oct-15 01:30N 40°45' W 073°57'3 7.0
2017-Oct-15 01:01N 40°42' W 074°00'3 6.9
2017-Oct-15 00:30N 40°45' W 073°57'1 1.1
2017-Oct-15 00:00N 40°45' W 073°57'4 7.3
2017-Oct-14 23:30N 40°42' W 073°60'3 5.2
2017-Oct-14 23:00N 40°45' W 073°58'2 4.2
2017-Oct-14 22:30N 40°46' W 073°56'2 4.2
2017-Oct-14 22:00N 40°45' W 073°58'0 0.1
2017-Oct-14 21:30N 40°45' W 073°58'2 3.5
2017-Oct-14 21:00N 40°46' W 073°57'1 2.5
2017-Oct-14 20:30N 40°45' W 073°57'3 6.8
2017-Oct-14 20:00N 40°42' W 074°00'4 7.4
2017-Oct-14 19:30N 40°45' W 073°57'0 0.6
2017-Oct-14 19:00N 40°45' W 073°57'4 8.0
2017-Oct-14 18:30N 40°42' W 074°00'3 5.8
2017-Oct-14 18:00N 40°45' W 073°58'2 3.2
2017-Oct-14 17:30N 40°46' W 073°57'2 3.9
2017-Oct-14 17:00N 40°44' W 073°58'0 0.2
2017-Oct-14 16:30N 40°44' W 073°58'3 4.1
2017-Oct-14 15:53N 40°46' W 073°56'2 5.5
2017-Oct-14 15:30N 40°45' W 073°58'3 5.7
2017-Oct-14 15:00N 40°42' W 073°60'4 7.5
2017-Oct-14 14:30N 40°45' W 073°57'0 0.8
2017-Oct-14 14:00N 40°45' W 073°57'4 7.1
2017-Oct-14 13:30N 40°42' W 074°00'3 7.2
2017-Oct-14 13:00N 40°45' W 073°57'1 1.2
2017-Oct-14 12:30N 40°45' W 073°57'3 5.9
2017-Oct-14 12:00N 40°43' W 073°58'2 4.0
2017-Oct-14 11:30N 40°45' W 073°58'2 4.1
2017-Oct-14 10:56N 40°46' W 073°56'510.3
2017-Oct-14 10:30N 40°42' W 073°58'0 0.0
2017-Oct-14 10:00N 40°42' W 073°58'0 0.0
2017-Oct-14 02:46N 40°42' W 073°58'310.0
2017-Oct-14 02:30N 40°45' W 073°58'3 5.6
2017-Oct-14 02:00N 40°42' W 073°60'0 0.9
2017-Oct-14 01:29N 40°42' W 074°00'0 1.0
2017-Oct-14 01:00N 40°42' W 073°60'3 5.4
2017-Oct-14 00:30N 40°45' W 073°58'3 5.2
2017-Oct-14 00:00N 40°42' W 073°60'0 0.9
2017-Oct-13 23:30N 40°42' W 074°00'2 4.7
2017-Oct-13 23:00N 40°44' W 073°58'0 0.6
2017-Oct-13 22:30N 40°43' W 073°58'2 4.2
2017-Oct-13 22:00N 40°42' W 074°00'2 3.3
2017-Oct-13 21:30N 40°43' W 073°58'2 4.1
2017-Oct-13 21:00N 40°45' W 073°58'3 6.1
2017-Oct-13 20:30N 40°42' W 074°00'0 0.1
2017-Oct-13 20:00N 40°42' W 074°00'0 0.3
2017-Oct-13 19:30N 40°42' W 074°00'3 5.8
2017-Oct-13 19:00N 40°44' W 073°58'2 4.1
2017-Oct-13 18:30N 40°43' W 073°59'1 1.0
2017-Oct-13 18:00N 40°42' W 073°58'1 1.1
2017-Oct-13 17:30N 40°43' W 073°58'2 4.2
2017-Oct-13 17:00N 40°45' W 073°58'3 5.3
2017-Oct-13 16:30N 40°42' W 073°60'0 1.0
2017-Oct-13 16:00N 40°42' W 074°00'0 0.9
2017-Oct-13 15:30N 40°42' W 073°60'3 5.4
2017-Oct-13 15:00N 40°45' W 073°58'2 4.5
2017-Oct-13 14:30N 40°42' W 073°59'1 2.7
2017-Oct-13 13:59N 40°42' W 074°00'1 1.2
2017-Oct-13 13:30N 40°42' W 073°60'3 5.0
2017-Oct-13 13:00N 40°45' W 073°58'3 5.4
2017-Oct-13 12:30N 40°42' W 073°60'0 0.9
2017-Oct-13 12:00N 40°42' W 074°00'3 5.5
2017-Oct-13 11:30N 40°44' W 073°58'2 3.5
2017-Oct-13 11:00N 40°43' W 073°58'2 3.2
2017-Oct-13 10:30N 40°42' W 074°00'2 3.1
2017-Oct-13 10:00N 40°42' W 073°58'0 0.0
2017-Oct-13 02:31N 40°42' W 073°58'0 0.5
2017-Oct-13 02:30N 40°42' W 073°58'3 6.8
2017-Oct-13 02:00N 40°45' W 073°57'1 1.1
2017-Oct-13 01:31N 40°45' W 073°57'3 6.9
2017-Oct-13 01:00N 40°42' W 074°00'3 6.8
2017-Oct-13 00:30N 40°45' W 073°57'1 1.0
2017-Oct-12 23:57N 40°45' W 073°57'3 7.7
2017-Oct-12 23:30N 40°42' W 073°59'2 5.0
2017-Oct-12 23:00N 40°45' W 073°58'1 2.5
2017-Oct-12 22:28N 40°46' W 073°57'2 3.6
2017-Oct-12 22:00N 40°44' W 073°58'2 4.1
2017-Oct-12 21:30N 40°42' W 073°59'4 7.5
2017-Oct-12 21:00N 40°46' W 073°57'1 2.0
2017-Oct-12 20:30N 40°45' W 073°57'3 6.9
2017-Oct-12 20:00N 40°42' W 074°00'1 0.7
2017-Oct-12 18:01N 40°42' W 073°58'1 1.2
2017-Oct-12 17:30N 40°42' W 073°59'1 1.9
2017-Oct-12 17:00N 40°42' W 074°00'2 3.0
2017-Oct-12 16:30N 40°42' W 073°58'1 2.2
2017-Oct-12 16:00N 40°42' W 073°60'0 0.0
2017-Oct-12 15:30N 40°42' W 073°60'1 2.1
2017-Oct-12 15:00N 40°41' W 074°01'2 3.8
2017-Oct-12 14:31N 40°42' W 073°58'1 1.8
2017-Oct-12 14:00N 40°43' W 073°58'3 5.5
2017-Oct-12 13:30N 40°46' W 073°57'1 1.5
2017-Oct-12 13:00N 40°45' W 073°57'3 7.1
2017-Oct-12 12:30N 40°42' W 074°00'3 6.8
2017-Oct-12 12:00N 40°45' W 073°57'1 1.8
2017-Oct-12 11:30N 40°44' W 073°58'2 4.3
2017-Oct-12 11:00N 40°42' W 073°58'0 0.0
2017-Oct-12 10:30N 40°42' W 073°58'0 0.0
2017-Oct-12 02:17N 40°42' W 073°58'1 1.8
2017-Oct-12 02:00N 40°43' W 073°58'1 2.1
2017-Oct-12 01:30N 40°42' W 073°60'3 6.4
2017-Oct-12 01:00N 40°45' W 073°57'0 0.9
2017-Oct-12 00:30N 40°45' W 073°58'1 2.5
2017-Oct-12 00:00N 40°43' W 073°58'1 1.6
2017-Oct-11 23:29N 40°42' W 073°58'2 3.3
2017-Oct-11 23:00N 40°42' W 074°00'3 5.2
2017-Oct-11 22:30N 40°44' W 073°58'1 2.9
2017-Oct-11 22:00N 40°43' W 073°58'2 3.4
2017-Oct-11 21:30N 40°42' W 074°00'2 4.2
2017-Oct-11 21:00N 40°43' W 073°58'1 1.2
2017-Oct-11 20:30N 40°44' W 073°58'3 5.1
2017-Oct-11 20:00N 40°42' W 074°00'1 1.6
2017-Oct-11 19:30N 40°41' W 074°01'1 1.6
2017-Oct-11 19:00N 40°42' W 074°00'3 4.9
2017-Oct-11 18:30N 40°44' W 073°58'1 1.2
2017-Oct-11 18:00N 40°43' W 073°58'1 2.1
2017-Oct-11 17:30N 40°42' W 073°59'1 1.7
2017-Oct-11 17:00N 40°42' W 073°60'3 0.2
2017-Oct-11 00:01N 40°45' W 073°58'2 4.1
2017-Oct-10 23:27N 40°46' W 073°56'2 5.2
2017-Oct-10 23:00N 40°45' W 073°58'3 5.8
2017-Oct-10 22:30N 40°42' W 074°00'4 8.0
2017-Oct-10 22:01N 40°45' W 073°57'0 0.0
2017-Oct-10 21:31N 40°45' W 073°57'3 6.2
2017-Oct-10 21:00N 40°43' W 073°59'2 4.1
2017-Oct-10 20:30N 40°45' W 073°58'2 4.4
2017-Oct-10 19:58N 40°46' W 073°56'5 9.8
2017-Oct-10 19:31N 40°42' W 073°58'0 0.0
2017-Oct-10 19:00N 40°42' W 073°58'0 0.0
2017-Oct-10 18:30N 40°42' W 073°58'1 2.5
2017-Oct-10 18:01N 40°43' W 073°58'1 2.7
2017-Oct-10 17:30N 40°45' W 073°58'3 5.9
2017-Oct-10 17:00N 40°42' W 074°00'1 2.5
2017-Oct-10 16:30N 40°41' W 074°01'0 0.7
2017-Oct-10 16:00N 40°41' W 074°01'3 5.0
2017-Oct-10 15:31N 40°38' W 074°02'3 6.1
2017-Oct-10 15:01N 40°41' W 074°01'5 5.0
2017-Oct-10 14:00N 40°45' W 073°57'3 5.2
2017-Oct-10 13:31N 40°43' W 073°58'2 3.3
2017-Oct-10 13:00N 40°45' W 073°58'2 4.2
2017-Oct-10 12:28N 40°46' W 073°56'2 5.0
2017-Oct-10 12:00N 40°45' W 073°58'2 4.8
2017-Oct-10 11:30N 40°42' W 073°59'4 7.0
2017-Oct-10 11:00N 40°46' W 073°57'2 4.3
2017-Oct-10 10:30N 40°44' W 073°58'1 0.2
2017-Oct-10 02:44N 40°42' W 073°58'311.5
2017-Oct-10 02:31N 40°45' W 073°58'3 5.4
2017-Oct-10 02:00N 40°42' W 073°60'0 0.9
2017-Oct-10 01:31N 40°42' W 074°00'0 1.0
2017-Oct-10 01:01N 40°42' W 073°60'3 5.4
2017-Oct-10 00:30N 40°45' W 073°58'3 5.4
2017-Oct-10 00:00N 40°42' W 073°60'0 0.9
2017-Oct-09 23:30N 40°42' W 074°00'2 4.4
2017-Oct-09 23:01N 40°43' W 073°58'0 0.1
2017-Oct-09 22:30N 40°43' W 073°58'2 4.3
2017-Oct-09 22:00N 40°42' W 074°00'2 3.3
2017-Oct-09 21:30N 40°43' W 073°58'2 4.1
2017-Oct-09 21:01N 40°45' W 073°58'3 6.1
2017-Oct-09 20:30N 40°42' W 074°00'1 1.6
2017-Oct-09 20:00N 40°41' W 074°01'1 1.6
2017-Oct-09 19:30N 40°42' W 074°00'3 6.0
2017-Oct-09 19:01N 40°45' W 073°58'2 4.2
2017-Oct-09 18:30N 40°43' W 073°59'1 1.4
2017-Oct-09 18:00N 40°42' W 073°60'0 0.5
2017-Oct-09 17:30N 40°42' W 073°60'3 5.5
2017-Oct-09 17:00N 40°45' W 073°58'2 4.1
2017-Oct-09 16:31N 40°43' W 073°58'1 2.9
2017-Oct-09 16:00N 40°42' W 074°00'0 0.9
2017-Oct-09 15:30N 40°42' W 073°60'3 5.5
2017-Oct-09 15:00N 40°45' W 073°58'2 4.7
2017-Oct-09 14:30N 40°42' W 073°59'2 3.2
2017-Oct-09 14:01N 40°42' W 074°01'2 4.2
2017-Oct-09 13:30N 40°43' W 073°58'2 4.5
2017-Oct-09 13:00N 40°45' W 073°58'3 5.7
2017-Oct-09 12:30N 40°42' W 073°60'0 0.0
2017-Oct-09 12:00N 40°42' W 073°60'2 4.5
2017-Oct-09 11:30N 40°44' W 073°58'1 2.5
2017-Oct-09 11:01N 40°43' W 073°58'1 1.1
2017-Oct-09 10:30N 40°42' W 073°59'1 1.1
2017-Oct-09 10:00N 40°42' W 073°58'0 0.0
2017-Oct-09 02:38N 40°42' W 073°59'318.9
2017-Oct-09 02:30N 40°45' W 073°58'0 0.7
2017-Oct-09 02:00N 40°45' W 073°57'3 7.0
2017-Oct-09 01:30N 40°42' W 074°00'4 8.0
2017-Oct-09 01:00N 40°45' W 073°57'0 0.1
2017-Oct-09 00:30N 40°45' W 073°57'4 7.6
2017-Oct-09 00:01N 40°42' W 073°60'3 5.2
2017-Oct-08 23:30N 40°45' W 073°58'2 3.4
2017-Oct-08 23:00N 40°46' W 073°57'2 4.6
2017-Oct-08 22:31N 40°44' W 073°58'1 1.5
2017-Oct-08 22:00N 40°45' W 073°58'2 4.5
2017-Oct-08 21:30N 40°46' W 073°56'2 3.9
2017-Oct-08 21:00N 40°45' W 073°58'3 6.4
2017-Oct-08 20:30N 40°42' W 074°00'4 8.2
2017-Oct-08 20:00N 40°45' W 073°57'1 2.9
2017-Oct-08 19:30N 40°44' W 073°58'2 4.1
2017-Oct-08 18:59N 40°42' W 073°58'2 3.2
2017-Oct-08 18:30N 40°42' W 074°00'0 0.4
2017-Oct-08 18:00N 40°42' W 074°00'0 0.4
2017-Oct-08 17:30N 40°42' W 074°00'  
Track history (hours):
 
Tides and Currents Weather Stations Pressure Air Temp Water Temp Dewpoint Dewpoint Depression Visibility Wind Speed Wind Dir Waves Ship Positions

OwLS Head

Owner: HNY Ferry Fleet LLC, New York, NY. More information available from US FCC via Universal Licensing System and Coast Guard Vessel Documentation Center.

Last reported at 2017-Oct-18 12:31 UTC. Time now 2017-Oct-18 12:48 UTC.
Position N 40°45' W 073°58'.

Length 26 m; draft 2 m.

Type: Passenger vessel. MMSI: 367790830.

Date/timePositionNaut miles runAvg speedWind from/ knotsBaromVisibWave heightAir tempDewpointWater temp
2017-Oct-18 12:31N 40°45' W 073°58'3 6.1
2017-Oct-18 12:00N 40°42' W 074°00'0 0.1
2017-Oct-18 11:30N 40°42' W 074°00'3 5.8
2017-Oct-18 11:00N 40°45' W 073°58'2 4.3
2017-Oct-18 10:31N 40°43' W 073°58'1 1.4
2017-Oct-18 10:00N 40°42' W 073°59'1 1.5
2017-Oct-18 09:30N 40°42' W 073°58'0 0.0
2017-Oct-18 02:02N 40°42' W 073°58'0 0.2
2017-Oct-18 02:00N 40°42' W 073°58'1 2.5
2017-Oct-18 01:30N 40°43' W 073°58'1 1.2
2017-Oct-18 01:00N 40°44' W 073°58'3 5.1
2017-Oct-18 00:30N 40°42' W 074°00'0 0.0
2017-Oct-18 00:00N 40°42' W 074°00'2 4.0
2017-Oct-17 23:30N 40°43' W 073°58'1 1.3
2017-Oct-17 23:01N 40°44' W 073°58'2 5.0
2017-Oct-17 22:30N 40°42' W 074°00'1 1.5
2017-Oct-17 22:00N 40°42' W 073°59'2 4.9
2017-Oct-17 21:30N 40°45' W 073°58'3 5.5
2017-Oct-17 21:01N 40°42' W 073°60'1 1.5
2017-Oct-17 20:31N 40°42' W 074°00'2 3.6
2017-Oct-17 20:01N 40°43' W 073°58'2 4.1
2017-Oct-17 19:30N 40°45' W 073°58'3 6.0
2017-Oct-17 19:00N 40°42' W 074°00'2 3.1
2017-Oct-17 18:30N 40°42' W 073°58'1 2.2
2017-Oct-17 18:00N 40°43' W 073°58'1 1.7
2017-Oct-17 17:30N 40°44' W 073°58'3 5.1
2017-Oct-17 17:00N 40°42' W 074°00'0 0.5
2017-Oct-17 16:31N 40°42' W 074°00'2 4.5
2017-Oct-17 16:00N 40°43' W 073°58'1 1.5
2017-Oct-17 15:30N 40°44' W 073°58'3 5.1
2017-Oct-17 15:00N 40°42' W 074°00'0 0.1
2017-Oct-17 14:30N 40°42' W 074°00'0 0.9
2017-Oct-17 14:00N 40°42' W 073°60'3 5.3
2017-Oct-17 13:30N 40°45' W 073°58'2 4.7
2017-Oct-17 13:00N 40°42' W 073°59'1 2.3
2017-Oct-17 12:30N 40°42' W 074°00'2 4.8
2017-Oct-17 12:01N 40°44' W 073°58'0 0.9
2017-Oct-17 11:31N 40°43' W 073°58'2 3.4
2017-Oct-17 11:00N 40°42' W 073°60'1 2.5
2017-Oct-17 10:30N 40°42' W 073°58'0 0.0
2017-Oct-17 02:42N 40°42' W 073°58'1 3.3
2017-Oct-17 02:30N 40°42' W 073°59'2 3.4
2017-Oct-17 02:00N 40°44' W 073°58'1 2.0
2017-Oct-17 01:30N 40°43' W 073°58'2 3.7
2017-Oct-17 01:01N 40°42' W 074°00'0 0.0
2017-Oct-17 00:31N 40°42' W 074°00'3 5.1
2017-Oct-17 00:00N 40°44' W 073°58'1 2.1
2017-Oct-16 23:31N 40°43' W 073°58'2 3.6
2017-Oct-16 23:00N 40°42' W 074°00'0 0.1
2017-Oct-16 22:30N 40°42' W 074°00'3 5.8
2017-Oct-16 22:00N 40°44' W 073°58'2 4.0
2017-Oct-16 21:30N 40°43' W 073°58'2 3.2
2017-Oct-16 21:00N 40°42' W 074°00'2 4.8
2017-Oct-16 20:30N 40°44' W 073°58'0 0.8
2017-Oct-16 20:00N 40°43' W 073°58'2 3.4
2017-Oct-16 19:31N 40°42' W 073°60'2 4.4
2017-Oct-16 19:01N 40°44' W 073°58'0 0.4
2017-Oct-16 18:30N 40°44' W 073°58'2 4.9
2017-Oct-16 18:00N 40°42' W 073°60'1 2.1
2017-Oct-16 17:30N 40°41' W 074°01'0 0.8
2017-Oct-16 17:00N 40°42' W 074°00'1 1.4
2017-Oct-16 16:30N 40°41' W 074°01'3 5.7
2017-Oct-16 16:00N 40°38' W 074°02'0 0.3
2017-Oct-16 15:30N 40°38' W 074°02'3 6.5
2017-Oct-16 15:01N 40°41' W 074°01'3 3.0
2017-Oct-16 14:00N 40°44' W 073°58'1 2.5
2017-Oct-16 13:30N 40°43' W 073°58'2 3.3
2017-Oct-16 13:00N 40°42' W 074°00'2 4.3
2017-Oct-16 12:31N 40°43' W 073°58'1 1.2
2017-Oct-16 12:00N 40°44' W 073°58'3 5.1
2017-Oct-16 11:30N 40°42' W 074°00'0 0.9
2017-Oct-16 11:00N 40°42' W 073°60'3 5.5
2017-Oct-16 10:31N 40°45' W 073°58'2 4.1
2017-Oct-16 10:00N 40°43' W 073°58'0 0.1
2017-Oct-16 03:08N 40°42' W 073°58'0 0.0
2017-Oct-16 03:00N 40°42' W 073°58'2 3.4
2017-Oct-16 02:30N 40°41' W 074°00'3 6.6
2017-Oct-16 02:01N 40°38' W 074°02'4 7.1
2017-Oct-16 01:31N 40°42' W 074°00'0 0.2
2017-Oct-16 01:01N 40°42' W 074°00'4 7.0
2017-Oct-16 00:31N 40°38' W 074°02'4 7.5
2017-Oct-16 00:00N 40°42' W 074°00'1 1.3
2017-Oct-15 23:31N 40°41' W 074°01'3 5.2
2017-Oct-15 23:00N 40°39' W 074°02'3 5.7
2017-Oct-15 22:31N 40°42' W 074°01'1 1.8
2017-Oct-15 22:00N 40°42' W 073°60'3 5.8
2017-Oct-15 21:31N 40°40' W 074°01'2 3.0
2017-Oct-15 21:00N 40°41' W 074°01'1 2.5
2017-Oct-15 20:30N 40°42' W 074°00'1 2.6
2017-Oct-15 20:00N 40°41' W 074°01'2 4.6
2017-Oct-15 19:30N 40°39' W 074°02'3 6.0
2017-Oct-15 19:01N 40°42' W 074°00'1 1.5
2017-Oct-15 18:31N 40°42' W 073°60'4 7.0
2017-Oct-15 18:01N 40°39' W 074°02'2 4.2
2017-Oct-15 17:31N 40°41' W 074°01'1 2.5
2017-Oct-15 17:00N 40°42' W 074°00'1 2.8
2017-Oct-15 16:31N 40°41' W 074°01'2 4.4
2017-Oct-15 16:00N 40°39' W 074°02'3 5.9
2017-Oct-15 15:30N 40°42' W 074°00'0 1.0
2017-Oct-15 15:00N 40°42' W 074°00'1 1.2
2017-Oct-15 14:00N 40°41' W 074°01'1 2.7
2017-Oct-15 13:31N 40°42' W 074°00'1 2.6
2017-Oct-15 13:01N 40°41' W 074°01'2 4.2
2017-Oct-15 12:30N 40°39' W 074°02'3 6.8
2017-Oct-15 12:00N 40°42' W 074°00'2 3.6
2017-Oct-15 11:31N 40°41' W 074°01'2 4.4
2017-Oct-15 11:01N 40°38' W 074°02'5 9.3
2017-Oct-15 10:30N 40°42' W 073°58'0 0.0
2017-Oct-15 02:19N 40°42' W 073°58'0 1.2
2017-Oct-15 02:00N 40°42' W 073°59'3 5.2
2017-Oct-15 01:30N 40°45' W 073°57'3 7.0
2017-Oct-15 01:01N 40°42' W 074°00'3 6.9
2017-Oct-15 00:30N 40°45' W 073°57'1 1.1
2017-Oct-15 00:00N 40°45' W 073°57'4 7.3
2017-Oct-14 23:30N 40°42' W 073°60'3 5.2
2017-Oct-14 23:00N 40°45' W 073°58'2 4.2
2017-Oct-14 22:30N 40°46' W 073°56'2 4.2
2017-Oct-14 22:00N 40°45' W 073°58'0 0.1
2017-Oct-14 21:30N 40°45' W 073°58'2 3.5
2017-Oct-14 21:00N 40°46' W 073°57'1 2.5
2017-Oct-14 20:30N 40°45' W 073°57'3 6.8
2017-Oct-14 20:00N 40°42' W 074°00'4 7.4
2017-Oct-14 19:30N 40°45' W 073°57'0 0.6
2017-Oct-14 19:00N 40°45' W 073°57'4 8.0
2017-Oct-14 18:30N 40°42' W 074°00'3 5.8
2017-Oct-14 18:00N 40°45' W 073°58'2 3.2
2017-Oct-14 17:30N 40°46' W 073°57'2 3.9
2017-Oct-14 17:00N 40°44' W 073°58'0 0.2
2017-Oct-14 16:30N 40°44' W 073°58'3 4.1
2017-Oct-14 15:53N 40°46' W 073°56'2 5.5
2017-Oct-14 15:30N 40°45' W 073°58'3 5.7
2017-Oct-14 15:00N 40°42' W 073°60'4 7.5
2017-Oct-14 14:30N 40°45' W 073°57'0 0.8
2017-Oct-14 14:00N 40°45' W 073°57'4 7.1
2017-Oct-14 13:30N 40°42' W 074°00'3 7.2
2017-Oct-14 13:00N 40°45' W 073°57'1 1.2
2017-Oct-14 12:30N 40°45' W 073°57'3 5.9
2017-Oct-14 12:00N 40°43' W 073°58'2 4.0
2017-Oct-14 11:30N 40°45' W 073°58'2 4.1
2017-Oct-14 10:56N 40°46' W 073°56'510.3
2017-Oct-14 10:30N 40°42' W 073°58'0 0.0
2017-Oct-14 10:00N 40°42' W 073°58'0 0.0
2017-Oct-14 02:46N 40°42' W 073°58'310.0
2017-Oct-14 02:30N 40°45' W 073°58'3 5.6
2017-Oct-14 02:00N 40°42' W 073°60'0 0.9
2017-Oct-14 01:29N 40°42' W 074°00'0 1.0
2017-Oct-14 01:00N 40°42' W 073°60'3 5.4
2017-Oct-14 00:30N 40°45' W 073°58'3 5.2
2017-Oct-14 00:00N 40°42' W 073°60'0 0.9
2017-Oct-13 23:30N 40°42' W 074°00'2 4.7
2017-Oct-13 23:00N 40°44' W 073°58'0 0.6
2017-Oct-13 22:30N 40°43' W 073°58'2 4.2
2017-Oct-13 22:00N 40°42' W 074°00'2 3.3
2017-Oct-13 21:30N 40°43' W 073°58'2 4.1
2017-Oct-13 21:00N 40°45' W 073°58'3 6.1
2017-Oct-13 20:30N 40°42' W 074°00'0 0.1
2017-Oct-13 20:00N 40°42' W 074°00'0 0.3
2017-Oct-13 19:30N 40°42' W 074°00'3 5.8
2017-Oct-13 19:00N 40°44' W 073°58'2 4.1
2017-Oct-13 18:30N 40°43' W 073°59'1 1.0
2017-Oct-13 18:00N 40°42' W 073°58'1 1.1
2017-Oct-13 17:30N 40°43' W 073°58'2 4.2
2017-Oct-13 17:00N 40°45' W 073°58'3 5.3
2017-Oct-13 16:30N 40°42' W 073°60'0 1.0
2017-Oct-13 16:00N 40°42' W 074°00'0 0.9
2017-Oct-13 15:30N 40°42' W 073°60'3 5.4
2017-Oct-13 15:00N 40°45' W 073°58'2 4.5
2017-Oct-13 14:30N 40°42' W 073°59'1 2.7
2017-Oct-13 13:59N 40°42' W 074°00'1 1.2
2017-Oct-13 13:30N 40°42' W 073°60'3 5.0
2017-Oct-13 13:00N 40°45' W 073°58'3 5.4
2017-Oct-13 12:30N 40°42' W 073°60'0 0.9
2017-Oct-13 12:00N 40°42' W 074°00'3 5.5
2017-Oct-13 11:30N 40°44' W 073°58'2 3.5
2017-Oct-13 11:00N 40°43' W 073°58'2 3.2
2017-Oct-13 10:30N 40°42' W 074°00'2 3.1
2017-Oct-13 10:00N 40°42' W 073°58'0 0.0
2017-Oct-13 02:31N 40°42' W 073°58'0 0.5
2017-Oct-13 02:30N 40°42' W 073°58'3 6.8
2017-Oct-13 02:00N 40°45' W 073°57'1 1.1
2017-Oct-13 01:31N 40°45' W 073°57'3 6.9
2017-Oct-13 01:00N 40°42' W 074°00'3 6.8
2017-Oct-13 00:30N 40°45' W 073°57'1 1.0
2017-Oct-12 23:57N 40°45' W 073°57'3 7.7
2017-Oct-12 23:30N 40°42' W 073°59'2 5.0
2017-Oct-12 23:00N 40°45' W 073°58'1 2.5
2017-Oct-12 22:28N 40°46' W 073°57'2 3.6
2017-Oct-12 22:00N 40°44' W 073°58'2 4.1
2017-Oct-12 21:30N 40°42' W 073°59'4 7.5
2017-Oct-12 21:00N 40°46' W 073°57'1 2.0
2017-Oct-12 20:30N 40°45' W 073°57'3 6.9
2017-Oct-12 20:00N 40°42' W 074°00'1 0.7
2017-Oct-12 18:01N 40°42' W 073°58'1 1.2
2017-Oct-12 17:30N 40°42' W 073°59'1 1.9
2017-Oct-12 17:00N 40°42' W 074°00'2 3.0
2017-Oct-12 16:30N 40°42' W 073°58'1 2.2
2017-Oct-12 16:00N 40°42' W 073°60'0 0.0
2017-Oct-12 15:30N 40°42' W 073°60'1 2.1
2017-Oct-12 15:00N 40°41' W 074°01'2 3.8
2017-Oct-12 14:31N 40°42' W 073°58'1 1.8
2017-Oct-12 14:00N 40°43' W 073°58'3 5.5
2017-Oct-12 13:30N 40°46' W 073°57'1 1.5
2017-Oct-12 13:00N 40°45' W 073°57'3 7.1
2017-Oct-12 12:30N 40°42' W 074°00'3 6.8
2017-Oct-12 12:00N 40°45' W 073°57'1 1.8
2017-Oct-12 11:30N 40°44' W 073°58'2 4.3
2017-Oct-12 11:00N 40°42' W 073°58'0 0.0
2017-Oct-12 10:30N 40°42' W 073°58'0 0.0
2017-Oct-12 02:17N 40°42' W 073°58'1 1.8
2017-Oct-12 02:00N 40°43' W 073°58'1 2.1
2017-Oct-12 01:30N 40°42' W 073°60'3 6.4
2017-Oct-12 01:00N 40°45' W 073°57'0 0.9
2017-Oct-12 00:30N 40°45' W 073°58'1 2.5
2017-Oct-12 00:00N 40°43' W 073°58'1 1.6
2017-Oct-11 23:29N 40°42' W 073°58'2 3.3
2017-Oct-11 23:00N 40°42' W 074°00'3 5.2
2017-Oct-11 22:30N 40°44' W 073°58'1 2.9
2017-Oct-11 22:00N 40°43' W 073°58'2 3.4
2017-Oct-11 21:30N 40°42' W 074°00'2 4.2
2017-Oct-11 21:00N 40°43' W 073°58'1 1.2
2017-Oct-11 20:30N 40°44' W 073°58'3 5.1
2017-Oct-11 20:00N 40°42' W 074°00'1 1.6
2017-Oct-11 19:30N 40°41' W 074°01'1 1.6
2017-Oct-11 19:00N 40°42' W 074°00'3 4.9
2017-Oct-11 18:30N 40°44' W 073°58'1 1.2
2017-Oct-11 18:00N 40°43' W 073°58'1 2.1
2017-Oct-11 17:30N 40°42' W 073°59'1 1.7
2017-Oct-11 17:00N 40°42' W 073°60'3 0.2
2017-Oct-11 00:01N 40°45' W 073°58'2 4.1
2017-Oct-10 23:27N 40°46' W 073°56'2 5.2
2017-Oct-10 23:00N 40°45' W 073°58'3 5.8
2017-Oct-10 22:30N 40°42' W 074°00'4 8.0
2017-Oct-10 22:01N 40°45' W 073°57'0 0.0
2017-Oct-10 21:31N 40°45' W 073°57'3 6.2
2017-Oct-10 21:00N 40°43' W 073°59'2 4.1
2017-Oct-10 20:30N 40°45' W 073°58'2 4.4
2017-Oct-10 19:58N 40°46' W 073°56'5 9.8
2017-Oct-10 19:31N 40°42' W 073°58'0 0.0
2017-Oct-10 19:00N 40°42' W 073°58'0 0.0
2017-Oct-10 18:30N 40°42' W 073°58'1 2.5
2017-Oct-10 18:01N 40°43' W 073°58'1 2.7
2017-Oct-10 17:30N 40°45' W 073°58'3 5.9
2017-Oct-10 17:00N 40°42' W 074°00'1 2.5
2017-Oct-10 16:30N 40°41' W 074°01'0 0.7
2017-Oct-10 16:00N 40°41' W 074°01'3 5.0
2017-Oct-10 15:31N 40°38' W 074°02'3 6.1
2017-Oct-10 15:01N 40°41' W 074°01'5 5.0
2017-Oct-10 14:00N 40°45' W 073°57'3 5.2
2017-Oct-10 13:31N 40°43' W 073°58'2 3.3
2017-Oct-10 13:00N 40°45' W 073°58'2 4.2
2017-Oct-10 12:28N 40°46' W 073°56'2 5.0
2017-Oct-10 12:00N 40°45' W 073°58'2 4.8
2017-Oct-10 11:30N 40°42' W 073°59'4 7.0
2017-Oct-10 11:00N 40°46' W 073°57'2 4.3
2017-Oct-10 10:30N 40°44' W 073°58'1 0.2
2017-Oct-10 02:44N 40°42' W 073°58'311.5
2017-Oct-10 02:31N 40°45' W 073°58'3 5.4
2017-Oct-10 02:00N 40°42' W 073°60'0 0.9
2017-Oct-10 01:31N 40°42' W 074°00'0 1.0
2017-Oct-10 01:01N 40°42' W 073°60'3 5.4
2017-Oct-10 00:30N 40°45' W 073°58'3 5.4
2017-Oct-10 00:00N 40°42' W 073°60'0 0.9
2017-Oct-09 23:30N 40°42' W 074°00'2 4.4
2017-Oct-09 23:01N 40°43' W 073°58'0 0.1
2017-Oct-09 22:30N 40°43' W 073°58'2 4.3
2017-Oct-09 22:00N 40°42' W 074°00'2 3.3
2017-Oct-09 21:30N 40°43' W 073°58'2 4.1
2017-Oct-09 21:01N 40°45' W 073°58'3 6.1
2017-Oct-09 20:30N 40°42' W 074°00'1 1.6
2017-Oct-09 20:00N 40°41' W 074°01'1 1.6
2017-Oct-09 19:30N 40°42' W 074°00'3 6.0
2017-Oct-09 19:01N 40°45' W 073°58'2 4.2
2017-Oct-09 18:30N 40°43' W 073°59'1 1.4
2017-Oct-09 18:00N 40°42' W 073°60'0 0.5
2017-Oct-09 17:30N 40°42' W 073°60'3 5.5
2017-Oct-09 17:00N 40°45' W 073°58'2 4.1
2017-Oct-09 16:31N 40°43' W 073°58'1 2.9
2017-Oct-09 16:00N 40°42' W 074°00'0 0.9
2017-Oct-09 15:30N 40°42' W 073°60'3 5.5
2017-Oct-09 15:00N 40°45' W 073°58'2 4.7
2017-Oct-09 14:30N 40°42' W 073°59'2 3.2
2017-Oct-09 14:01N 40°42' W 074°01'2 4.2
2017-Oct-09 13:30N 40°43' W 073°58'2 4.5
2017-Oct-09 13:00N 40°45' W 073°58'3 5.7
2017-Oct-09 12:30N 40°42' W 073°60'0 0.0
2017-Oct-09 12:00N 40°42' W 073°60'2 4.5
2017-Oct-09 11:30N 40°44' W 073°58'1 2.5
2017-Oct-09 11:01N 40°43' W 073°58'1 1.1
2017-Oct-09 10:30N 40°42' W 073°59'1 1.1
2017-Oct-09 10:00N 40°42' W 073°58'0 0.0
2017-Oct-09 02:38N 40°42' W 073°59'318.9
2017-Oct-09 02:30N 40°45' W 073°58'0 0.7
2017-Oct-09 02:00N 40°45' W 073°57'3 7.0
2017-Oct-09 01:30N 40°42' W 074°00'4 8.0
2017-Oct-09 01:00N 40°45' W 073°57'0 0.1
2017-Oct-09 00:30N 40°45' W 073°57'4 7.6
2017-Oct-09 00:01N 40°42' W 073°60'3 5.2
2017-Oct-08 23:30N 40°45' W 073°58'2 3.4
2017-Oct-08 23:00N 40°46' W 073°57'2 4.6
2017-Oct-08 22:31N 40°44' W 073°58'1 1.5
2017-Oct-08 22:00N 40°45' W 073°58'2 4.5
2017-Oct-08 21:30N 40°46' W 073°56'2 3.9
2017-Oct-08 21:00N 40°45' W 073°58'3 6.4
2017-Oct-08 20:30N 40°42' W 074°00'4 8.2
2017-Oct-08 20:00N 40°45' W 073°57'1 2.9
2017-Oct-08 19:30N 40°44' W 073°58'2 4.1
2017-Oct-08 18:59N 40°42' W 073°58'2 3.2
2017-Oct-08 18:30N 40°42' W 074°00'0 0.4
2017-Oct-08 18:00N 40°42' W 074°00'0 0.4
2017-Oct-08 17:30N 40°42' W 074°00'  

Dump ship's entire track history